Latest Coastal Weather Observations for Gunn Point

IDD60701

Issued at 1:51 am CST Sunday 2 August 2015 (issued every 10 minutes, with the page automatically refreshed every 10 minutes)

About coastal observations | Map of coastal stations | Coastal observations for NT | Marine services | Other Formats
Station Details ID: 014023 Name: GUNN POINT Lat: -12.25 Lon: 131.04 Height: 25.0 m
Data from the previous 72 hours. | See also: Recent months for locations in Northern Territory
Date/Time
CST
Temp

°C
Wind Pressure Rain
since 9am
mm
Weather Cloud Vis
km
Sea
Height
m
Swell
Dir
 
Speed
knots
Gust
knots
hPa Trend Height
m
Period
s
Dir
02/01:30am 17.3 CALM 0 0 1014.8 - 0.0 - - - - - - -
02/01:00am 17.6 CALM 0 0 1014.7 - 0.0 - - - - - - -
02/12:30am 17.7 CALM 0 0 1014.7 - 0.0 - - - - - - -
02/12:00am 17.8 CALM 0 0 1014.8 - 0.0 - - - - - - -
 
Date/Time
CST
Temp

°C
Wind Pressure Rain
since 9am
mm
Weather Cloud Vis
km
Sea
Height
m
Swell
Dir
 
Speed
knots
Gust
knots
hPa Trend Height
m
Period
s
Dir
01/11:30pm 17.9 CALM 0 0 1014.8 - 0.0 - - - - - - -
01/11:00pm 17.8 CALM 0 0 1015.0 - 0.0 - - - - - - -
01/10:30pm 17.9 CALM 0 0 1014.8 - 0.0 - - - - - - -
01/10:00pm 18.4 CALM 0 0 1014.8 - 0.0 - - - - - - -
01/09:30pm 18.5 CALM 0 1 1014.4 - 0.0 - - - - - - -
01/09:00pm 19.3 CALM 0 0 1013.8 - 0.0 - - - - - - -
01/08:30pm 19.9 CALM 0 0 1013.5 - 0.0 - - - - - - -
01/08:00pm 21.9 SW 2 4 1013.2 - 0.0 - - - - - - -
01/07:30pm 21.2 CALM 0 0 1012.7 - 0.0 - - - - - - -
01/07:00pm 23.4 CALM 0 0 1012.5 - 0.0 - - - - - - -
01/06:30pm 25.2 NE 2 4 1012.4 - 0.0 - - - - - - -
01/06:00pm 26.9 NE 3 5 1012.4 - 0.0 - - - - - - -
01/05:30pm 28.2 NE 3 8 1012.3 - 0.0 - - - - - - -
01/05:00pm 28.5 NE 4 7 1012.2 - 0.0 - - - - - - -
01/04:30pm 28.6 NE 6 11 1012.0 - 0.0 - - - - - - -
01/04:00pm 29.3 NNE 6 10 1012.1 - 0.0 - - - - - - -
01/03:30pm 29.3 NNE 6 9 1012.2 - 0.0 - - - - - - -
01/03:00pm 30.1 NNE 7 11 1012.3 - 0.0 - - - - - - -
01/02:30pm 30.5 NE 8 13 1012.7 - 0.0 - - - - - - -
01/02:00pm 29.8 NNE 7 14 1013.2 - 0.0 - - - - - - -
01/01:30pm 30.9 NE 7 13 1013.7 - 0.0 - - - - - - -
01/01:00pm 29.9 NE 8 15 1014.3 - 0.0 - - - - - - -
01/12:30pm 30.1 ENE 7 13 1014.8 - 0.0 - - - - - - -
01/12:00pm 29.8 ENE 8 15 1015.3 - 0.0 - - - - - - -
01/11:30am 28.8 ENE 9 15 1015.7 - 0.0 - - - - - - -
01/11:00am 29.1 NE 8 13 1016.0 - 0.0 - - - - - - -
01/10:30am 27.9 E 8 14 1016.1 - 0.0 - - - - - - -
01/10:00am 27.3 E 9 16 1016.3 - 0.0 - - - - - - -
01/09:30am 26.7 E 5 11 1016.2 - 0.0 - - - - - - -
01/09:00am 25.2 E 5 10 1016.0 - 0.0 - - - - - - -
01/08:30am 23.4 ESE 3 5 1015.5 - 0.0 - - - - - - -
01/08:00am 21.6 ESE 2 3 1015.2 - 0.0 - - - - - - -
01/07:30am 18.4 ESE 2 2 1015.0 - 0.0 - - - - - - -
01/07:00am 17.9 ESE 2 3 1014.7 - 0.0 - - - - - - -
01/06:30am 18.1 ESE 1 3 1014.3 - 0.0 - - - - - - -
01/06:00am 18.6 ESE 2 3 1014.1 - 0.0 - - - - - - -
01/05:30am 19.2 CALM 0 0 1014.1 - 0.0 - - - - - - -
01/05:00am 19.8 CALM 0 1 1014.1 - 0.0 - - - - - - -
01/04:30am 20.4 ESE 2 3 1014.1 - 0.0 - - - - - - -
01/04:00am 20.4 CALM 0 1 1014.0 - 0.0 - - - - - - -
01/03:30am 20.8 SSE 1 2 1014.1 - 0.0 - - - - - - -
01/03:00am 20.1 SE 1 3 1014.2 - 0.0 - - - - - - -
01/02:30am 19.5 CALM 0 0 1014.2 - 0.0 - - - - - - -
01/02:00am 20.0 CALM 0 0 1014.3 - 0.0 - - - - - - -
01/01:30am 20.3 CALM 0 2 1014.4 - 0.0 - - - - - - -
01/01:00am 21.0 CALM 0 1 1014.5 - 0.0 - - - - - - -
01/12:30am 22.0 SE 1 2 1014.5 - 0.0 - - - - - - -
01/12:00am 22.1 S 2 4 1014.3 - 0.0 - - - - - - -
 
Date/Time
CST
Temp

°C
Wind Pressure Rain
since 9am
mm
Weather Cloud Vis
km
Sea
Height
m
Swell
Dir
 
Speed
knots
Gust
knots
hPa Trend Height
m
Period
s
Dir
31/11:30pm 22.2 CALM 0 1 1013.7 - 0.0 - - - - - - -
31/11:00pm 22.9 NE 2 4 1013.6 - 0.0 - - - - - - -
31/10:30pm 23.2 NE 2 4 1013.5 - 0.0 - - - - - - -
31/10:00pm 23.0 NE 2 4 1013.3 - 0.0 - - - - - - -
31/09:30pm 23.6 NE 2 4 1013.1 - 0.0 - - - - - - -
31/09:00pm 23.7 NE 3 5 1013.1 - 0.0 - - - - - - -
31/08:30pm 23.5 NE 1 2 1012.9 - 0.0 - - - - - - -
31/08:00pm 24.1 NE 2 4 1012.7 - 0.0 - - - - - - -
31/07:30pm 25.0 NE 1 4 1012.4 - 0.0 - - - - - - -
31/07:00pm 25.7 NE 2 5 1012.2 - 0.0 - - - - - - -
31/06:30pm 26.5 NE 3 8 1011.9 - 0.0 - - - - - - -
31/06:00pm 27.3 NE 5 9 1011.6 - 0.0 - - - - - - -
31/05:30pm 28.5 NE 7 13 1011.5 - 0.0 - - - - - - -
31/05:00pm 29.2 NE 7 12 1011.3 - 0.0 - - - - - - -
31/04:30pm 29.3 NE 9 15 1011.1 - 0.0 - - - - - - -
31/04:00pm 30.4 NNE 8 15 1011.0 - 0.0 - - - - - - -
31/03:30pm 30.4 NE 9 17 1011.3 - 0.0 - - - - - - -
31/03:00pm 31.3 NE 11 19 1011.5 - 0.0 - - - - - - -
31/02:30pm 31.4 E 8 15 1012.2 - 0.0 - - - - - - -
31/02:00pm 31.1 E 10 19 1012.7 - 0.0 - - - - - - -
31/01:30pm 31.5 ENE 10 16 1013.1 - 0.0 - - - - - - -
31/01:00pm 31.1 ENE 10 17 1013.7 - 0.0 - - - - - - -
31/12:30pm 30.5 E 9 18 1014.1 - 0.0 - - - - - - -
31/12:00pm 30.8 E 10 16 1014.7 - 0.0 - - - - - - -
31/11:30am 29.8 ENE 10 16 1015.1 - 0.0 - - - - - - -
31/11:00am 28.9 E 9 18 1015.5 - 0.0 - - - - - - -
31/10:30am 28.9 E 9 16 1015.8 - 0.0 - - - - - - -
31/10:00am 27.6 E 8 14 1016.0 - 0.0 - - - - - - -
31/09:30am 26.4 ENE 6 10 1016.3 - 0.0 - - - - - - -
31/09:00am 24.6 E 5 9 1016.2 - - - - - - - - -
31/08:30am 22.6 ESE 3 5 1015.8 - - - - - - - - -
31/08:00am 20.1 ESE 2 4 1015.5 - - - - - - - - -
31/07:30am 16.8 E 1 3 1015.5 - - - - - - - - -
31/07:00am 16.6 E 1 2 1015.3 - - - - - - - - -
31/06:30am 16.6 CALM 0 0 1015.2 - - - - - - - - -
31/06:00am 16.7 CALM 0 0 1014.9 - - - - - - - - -
31/05:30am 16.6 CALM 0 3 1014.7 - - - - - - - - -
31/05:00am 17.0 ENE 1 2 1014.8 - - - - - - - - -
31/04:30am 17.3 CALM 0 0 1014.9 - - - - - - - - -
31/04:00am 17.7 CALM 0 0 1015.0 - - - - - - - - -
31/03:30am 17.9 CALM 0 0 1015.0 - - - - - - - - -
31/03:00am 17.9 CALM 0 0 1015.0 - - - - - - - - -
31/02:30am 18.4 CALM 0 0 1015.1 - - - - - - - - -
31/02:00am 18.6 CALM 0 0 1015.2 - - - - - - - - -
31/01:30am 19.0 CALM 0 0 1015.4 - - - - - - - - -
31/01:00am 19.6 CALM 0 0 1015.6 - - - - - - - - -
31/12:30am 20.1 CALM 0 0 1015.8 - - - - - - - - -
31/12:00am 20.5 CALM 0 0 1015.8 - - - - - - - - -
 
Date/Time
CST
Temp

°C
Wind Pressure Rain
since 9am
mm
Weather Cloud Vis
km
Sea
Height
m
Swell
Dir
 
Speed
knots
Gust
knots
hPa Trend Height
m
Period
s
Dir
30/11:30pm 21.0 CALM 0 0 1016.2 - - - - - - - - -
30/11:00pm 21.3 CALM 0 1 1015.9 - - - - - - - - -
30/10:00pm 22.0 SSE 2 3 1015.7 - 0.0 - - - - - - -
30/09:30pm 20.9 SSW 1 5 1015.0 - 0.0 - - - - - - -
30/09:00pm 20.8 SW 1 3 1014.7 - 0.0 - - - - - - -
30/08:30pm 22.2 CALM 0 0 1014.4 - 0.0 - - - - - - -
30/08:00pm 22.8 ENE 1 2 1013.9 - 0.0 - - - - - - -
30/07:30pm 24.3 NE 3 4 1013.5 - 0.0 - - - - - - -
30/07:00pm 25.2 NE 3 5 1013.2 - 0.0 - - - - - - -
30/06:30pm 26.3 NE 2 5 1013.0 - 0.0 - - - - - - -
30/06:00pm 27.6 NE 4 8 1012.8 - 0.0 - - - - - - -
30/05:30pm 28.7 NNE 4 6 1012.7 - 0.0 - - - - - - -
30/05:00pm 29.2 NE 5 9 1012.6 - 0.0 - - - - - - -
30/04:30pm 29.6 NE 7 11 1012.7 - 0.0 - - - - - - -
30/04:00pm 29.5 NE 7 12 1012.7 - 0.0 - - - - - - -
30/03:30pm 29.8 NE 8 15 1012.9 - 0.0 - - - - - - -
30/03:00pm 29.7 NE 7 13 1013.2 - 0.0 - - - - - - -
30/02:30pm 29.9 NE 9 15 1013.8 - 0.0 - - - - - - -
30/02:00pm 30.0 NNE 10 19 1014.1 - 0.0 - - - - - - -
30/01:30pm 31.7 NE 9 16 1014.5 - 0.0 - - - - - - -
30/01:00pm 31.6 ENE 9 19 1014.9 - 0.0 - - - - - - -
30/12:30pm 31.9 ENE 9 18 1015.4 - 0.0 - - - - - - -
30/12:00pm 30.5 ENE 13 23 1015.9 - 0.0 - - - - - - -
30/11:30am 30.0 E 11 19 1016.4 - 0.0 - - - - - - -
30/11:00am 30.1 E 11 19 1016.6 - 0.0 - - - - - - -
30/10:30am 29.2 E 9 14 1016.7 - 0.0 - - - - - - -
30/10:00am 27.9 ESE 8 15 1016.9 - 0.0 - - - - - - -
30/09:30am 27.0 ESE 7 12 1016.7 - 0.0 - - - - - - -
30/09:00am 25.7 ESE 6 13 1016.5 - 0.0 - - - - - - -
30/08:30am 23.4 ESE 4 8 1016.4 - 0.0 - - - - - - -
30/08:00am 21.1 ESE 3 4 1016.3 - 0.0 - - - - - - -
30/07:30am 18.5 ESE 2 4 1016.2 - 0.0 - - - - - - -
30/07:00am 16.2 ESE 3 4 1016.0 - 0.0 - - - - - - -
30/06:30am 15.9 E 2 3 1015.9 - 0.0 - - - - - - -
30/06:00am 16.1 E 1 3 1015.6 - 0.0 - - - - - - -
30/05:30am 16.6 E 2 3 1015.5 - 0.0 - - - - - - -
30/05:00am 16.9 E 2 3 1015.4 - 0.0 - - - - - - -
30/04:30am 16.5 E 2 3 1015.4 - 0.0 - - - - - - -
30/04:00am 17.0 E 1 2 1015.5 - 0.0 - - - - - - -
30/03:30am 17.3 CALM 0 3 1015.8 - 0.0 - - - - - - -
30/03:00am 17.4 E 2 4 1016.0 - 0.0 - - - - - - -
30/02:30am 17.6 ESE 3 5 1016.3 - 0.0 - - - - - - -
30/02:00am 17.4 CALM 0 0 1016.5 - 0.0 - - - - - - -

Other Formats:

Comma delimited format used in spreadsheet applications
http://www.bom.gov.au/fwo/IDD60701/IDD60701.99501.axf

JavaScript Object Notation format (JSON) in row-major order
http://www.bom.gov.au/fwo/IDD60701/IDD60701.99501.json